createdAt,value
2022-12-20T00:01:36.038Z,50.33
2022-12-20T00:04:06.007Z,50.45
2022-12-20T00:06:35.893Z,50.35
2022-12-20T00:09:06.446Z,50.63
2022-12-20T00:11:34.420Z,50.51
2022-12-20T00:14:02.291Z,50.43
2022-12-20T00:16:30.368Z,50.37
2022-12-20T00:19:01.394Z,50.42
2022-12-20T00:21:29.671Z,50.42
2022-12-20T00:23:57.731Z,50.01
2022-12-20T00:26:28.388Z,50.38
2022-12-20T00:28:57.029Z,50.61
2022-12-20T00:31:25.705Z,50.46
2022-12-20T00:33:54.928Z,50.35
2022-12-20T00:36:24.767Z,50.30
2022-12-20T00:38:54.829Z,50.40
2022-12-20T00:41:28.627Z,50.53
2022-12-20T00:43:56.739Z,50.50
2022-12-20T00:46:25.108Z,50.94
2022-12-20T00:48:54.531Z,50.89
2022-12-20T00:51:25.700Z,50.90
2022-12-20T00:53:53.788Z,50.94
2022-12-20T00:56:21.715Z,50.70
2022-12-20T00:58:49.786Z,50.23
2022-12-20T01:01:30.523Z,50.19
2022-12-20T01:03:59.009Z,50.17
2022-12-20T01:06:27.368Z,50.28
2022-12-20T01:08:55.606Z,50.31
2022-12-20T01:11:28.944Z,50.44
2022-12-20T01:13:57.743Z,50.27
2022-12-20T01:16:29.024Z,50.38
2022-12-20T01:18:56.954Z,50.16
2022-12-20T01:21:26.187Z,49.83
2022-12-20T01:23:54.243Z,49.77
2022-12-20T01:26:24.581Z,49.51
2022-12-20T01:28:54.769Z,49.58
2022-12-20T01:31:23.082Z,49.84
2022-12-20T01:33:51.340Z,49.85
2022-12-20T01:36:25.391Z,49.93
2022-12-20T01:39:04.937Z,49.72
2022-12-20T01:41:32.785Z,50.05
2022-12-20T01:44:03.735Z,50.39
2022-12-20T01:46:34.588Z,50.35
2022-12-20T01:49:11.034Z,50.04
2022-12-20T01:52:16.312Z,49.99
2022-12-20T01:54:55.648Z,50.09
2022-12-20T01:57:39.027Z,49.91
2022-12-20T02:00:09.896Z,49.79
2022-12-20T02:02:46.086Z,49.64
2022-12-20T02:05:15.074Z,49.76
2022-12-20T02:07:47.027Z,49.73
2022-12-20T02:10:17.055Z,49.72
2022-12-20T02:12:46.645Z,49.16
2022-12-20T02:15:32.538Z,49.14
2022-12-20T02:18:08.691Z,49.60
2022-12-20T02:21:19.868Z,49.99
2022-12-20T02:24:17.852Z,50.15
2022-12-20T02:27:10.191Z,50.37
2022-12-20T02:30:01.638Z,50.35
2022-12-20T02:32:43.545Z,50.27
2022-12-20T02:35:14.191Z,50.16
2022-12-20T02:37:51.186Z,50.25
2022-12-20T02:40:26.990Z,50.56
2022-12-20T02:43:01.214Z,50.88
2022-12-20T02:45:35.271Z,50.91
2022-12-20T02:48:12.480Z,51.22
2022-12-20T02:50:46.336Z,50.93
2022-12-20T02:53:14.443Z,51.51
2022-12-20T02:55:51.505Z,51.56
2022-12-20T02:58:32.395Z,51.44
2022-12-20T03:01:04.712Z,51.77
2022-12-20T03:03:35.961Z,51.35
2022-12-20T03:06:03.991Z,51.92
2022-12-20T03:08:32.043Z,51.59
2022-12-20T03:11:00.129Z,51.68
2022-12-20T03:13:28.863Z,51.70
2022-12-20T03:16:00.950Z,51.66
2022-12-20T03:18:29.088Z,51.53
2022-12-20T03:20:56.972Z,51.51
2022-12-20T03:23:24.869Z,51.59
2022-12-20T03:25:52.750Z,51.74
2022-12-20T03:28:30.946Z,51.71
2022-12-20T03:30:58.942Z,51.72
2022-12-20T03:33:26.991Z,51.94
2022-12-20T03:35:55.429Z,51.92
2022-12-20T03:38:23.431Z,51.94
2022-12-20T03:40:51.409Z,52.40
2022-12-20T03:43:21.422Z,52.01
2022-12-20T03:45:49.231Z,52.35
2022-12-20T03:48:17.126Z,52.37
2022-12-20T03:50:45.151Z,52.84
2022-12-20T03:53:13.082Z,52.50
2022-12-20T03:55:45.152Z,52.36
2022-12-20T03:58:14.143Z,52.59
2022-12-20T04:00:42.742Z,52.67
2022-12-20T04:03:32.560Z,52.59
2022-12-20T04:06:00.496Z,53.03
2022-12-20T04:08:28.745Z,53.00
2022-12-20T04:11:15.867Z,52.84
2022-12-20T04:13:53.454Z,53.27
2022-12-20T04:16:26.054Z,53.32
2022-12-20T04:18:54.917Z,53.39
2022-12-20T04:21:26.501Z,53.64
2022-12-20T04:23:55.767Z,53.70
2022-12-20T04:26:25.484Z,53.66
2022-12-20T04:28:53.760Z,53.74
2022-12-20T04:31:24.238Z,54.27
2022-12-20T04:33:53.508Z,54.29
2022-12-20T04:36:22.280Z,54.47
2022-12-20T04:38:51.692Z,54.14
2022-12-20T04:41:22.794Z,54.61
2022-12-20T04:43:58.044Z,55.02
2022-12-20T04:46:31.428Z,55.10
2022-12-20T04:49:00.177Z,55.25
2022-12-20T04:51:29.230Z,55.10
2022-12-20T04:53:57.291Z,55.12
2022-12-20T04:56:37.444Z,55.52
2022-12-20T04:59:11.140Z,55.37
2022-12-20T05:01:40.553Z,56.12
2022-12-20T05:04:09.065Z,56.01
2022-12-20T05:06:37.816Z,56.46
2022-12-20T05:09:05.905Z,56.27
2022-12-20T05:11:34.163Z,56.81
2022-12-20T05:14:04.279Z,57.17
2022-12-20T05:16:32.367Z,57.25
2022-12-20T05:19:00.424Z,57.93
2022-12-20T05:21:47.329Z,56.50
2022-12-20T05:24:34.659Z,59.52
2022-12-20T05:27:11.697Z,62.67
2022-12-20T05:29:39.904Z,66.27
2022-12-20T05:32:07.871Z,62.47
2022-12-20T05:34:38.198Z,61.13
2022-12-20T05:37:07.057Z,58.77
2022-12-20T05:39:35.464Z,56.36
2022-12-20T05:42:06.683Z,57.25
2022-12-20T05:44:35.394Z,59.48
2022-12-20T05:47:03.541Z,64.05
2022-12-20T05:49:32.453Z,66.38
2022-12-20T05:52:02.584Z,64.63
2022-12-20T05:54:30.743Z,60.87
2022-12-20T05:57:04.361Z,58.36
2022-12-20T05:59:35.993Z,57.85
2022-12-20T06:02:05.397Z,58.49
2022-12-20T06:04:35.417Z,63.62
2022-12-20T06:07:09.635Z,66.12
2022-12-20T06:09:37.756Z,65.42
2022-12-20T06:12:08.842Z,63.22
2022-12-20T06:14:36.811Z,62.59
2022-12-20T06:17:04.778Z,61.46
2022-12-20T06:19:33.189Z,60.05
2022-12-20T06:22:01.843Z,60.77
2022-12-20T06:24:48.162Z,60.05
2022-12-20T06:27:18.730Z,60.01
2022-12-20T06:29:52.268Z,58.81
2022-12-20T06:32:23.544Z,59.19
2022-12-20T06:34:51.832Z,62.34
2022-12-20T06:37:19.713Z,65.73
2022-12-20T06:39:47.616Z,66.04
2022-12-20T06:42:16.019Z,64.70
2022-12-20T06:44:45.803Z,63.43
2022-12-20T06:47:14.188Z,63.19
2022-12-20T06:49:42.045Z,61.68
2022-12-20T06:52:17.492Z,61.28
2022-12-20T06:54:51.224Z,60.40
2022-12-20T06:57:21.114Z,61.18
2022-12-20T06:59:49.913Z,60.31
2022-12-20T07:02:17.841Z,59.95
2022-12-20T07:04:46.144Z,58.44
2022-12-20T07:07:13.943Z,58.07
2022-12-20T07:09:42.762Z,61.24
2022-12-20T07:12:10.876Z,65.78
2022-12-20T07:14:38.829Z,65.73
2022-12-20T07:17:07.708Z,62.93
2022-12-20T07:19:36.503Z,61.98
2022-12-20T07:22:05.832Z,61.51
2022-12-20T07:24:34.193Z,60.11
2022-12-20T07:27:02.353Z,59.91
2022-12-20T07:29:30.327Z,58.88
2022-12-20T07:31:58.400Z,59.32
2022-12-20T07:34:26.341Z,60.14
2022-12-20T07:36:54.347Z,64.06
2022-12-20T07:39:22.218Z,66.17
2022-12-20T07:41:55.791Z,64.76
2022-12-20T07:44:24.179Z,63.01
2022-12-20T07:46:52.138Z,62.23
2022-12-20T07:49:20.008Z,61.46
2022-12-20T07:51:50.490Z,61.13
2022-12-20T07:54:22.051Z,60.96
2022-12-20T07:56:53.575Z,60.52
2022-12-20T07:59:25.495Z,59.91
2022-12-20T08:01:54.364Z,59.75
2022-12-20T08:04:25.863Z,59.57
2022-12-20T08:06:55.933Z,58.57
2022-12-20T08:09:23.920Z,58.81
2022-12-20T08:11:51.898Z,59.70
2022-12-20T08:14:19.784Z,64.69
2022-12-20T08:16:47.599Z,66.25
2022-12-20T08:19:15.484Z,65.13
2022-12-20T08:21:43.407Z,63.25
2022-12-20T08:24:12.253Z,61.87
2022-12-20T08:26:40.932Z,60.98
2022-12-20T08:29:09.211Z,58.81
2022-12-20T08:31:47.646Z,57.67
2022-12-20T08:34:18.447Z,58.71
2022-12-20T08:36:46.306Z,60.13
2022-12-20T08:39:14.178Z,62.26
2022-12-20T08:41:42.164Z,64.76
2022-12-20T08:44:10.900Z,63.30
2022-12-20T08:46:38.955Z,61.27
2022-12-20T08:49:06.972Z,60.47
2022-12-20T08:51:35.036Z,58.77
2022-12-20T08:54:03.388Z,56.85
2022-12-20T08:56:31.517Z,57.42
2022-12-20T08:58:59.665Z,58.95
2022-12-20T09:01:30.060Z,62.48
2022-12-20T09:03:58.140Z,64.99
2022-12-20T09:06:26.230Z,63.62
2022-12-20T09:08:55.801Z,61.46
2022-12-20T09:11:25.914Z,59.80
2022-12-20T09:13:55.980Z,56.42
2022-12-20T09:16:26.830Z,55.82
2022-12-20T09:19:04.328Z,58.93
2022-12-20T09:21:35.207Z,60.36
2022-12-20T09:24:03.564Z,62.35
2022-12-20T09:26:32.446Z,65.98
2022-12-20T09:29:02.263Z,64.28
2022-12-20T09:31:30.452Z,61.85
2022-12-20T09:33:59.065Z,58.68
2022-12-20T09:36:28.579Z,56.67
2022-12-20T09:38:57.004Z,58.30
2022-12-20T09:41:34.763Z,61.36
2022-12-20T09:44:12.385Z,62.42
2022-12-20T09:46:40.669Z,61.38
2022-12-20T09:49:16.243Z,59.16
2022-12-20T09:52:20.051Z,55.51
2022-12-20T09:54:57.269Z,57.78
2022-12-20T09:57:44.977Z,59.41
2022-12-20T10:00:18.304Z,64.17
2022-12-20T10:03:01.924Z,63.39
2022-12-20T10:05:46.413Z,60.46
2022-12-20T10:08:24.691Z,56.77
2022-12-20T10:11:25.387Z,57.31
2022-12-20T10:14:14.958Z,60.69
2022-12-20T10:16:46.336Z,60.69
2022-12-20T10:19:34.398Z,61.81
2022-12-20T10:22:20.317Z,64.63
2022-12-20T10:24:56.523Z,61.66
2022-12-20T10:27:24.490Z,58.31
2022-12-20T10:29:52.455Z,58.17
2022-12-20T10:32:23.518Z,59.48
2022-12-20T10:35:15.361Z,60.75
2022-12-20T10:38:14.058Z,64.24
2022-12-20T10:41:19.399Z,62.79
2022-12-20T10:43:51.191Z,59.15
2022-12-20T10:46:19.338Z,55.24
2022-12-20T10:48:48.174Z,54.93
2022-12-20T10:51:21.546Z,56.52
2022-12-20T10:54:03.318Z,57.90
2022-12-20T10:56:32.772Z,61.42
2022-12-20T10:59:23.672Z,63.02
2022-12-20T11:01:51.763Z,61.19
2022-12-20T11:04:29.952Z,58.56
2022-12-20T11:06:59.763Z,56.27
2022-12-20T11:09:33.674Z,57.35
2022-12-20T11:12:13.587Z,57.14
2022-12-20T11:14:46.013Z,61.78
2022-12-20T11:17:34.825Z,62.94
2022-12-20T11:20:46.219Z,61.34
2022-12-20T11:23:18.395Z,56.87
2022-12-20T11:26:23.915Z,57.19
2022-12-20T11:29:28.263Z,58.84
2022-12-20T11:32:29.682Z,58.41
2022-12-20T11:35:08.091Z,59.17
2022-12-20T11:37:51.356Z,63.83
2022-12-20T11:40:31.373Z,64.32
2022-12-20T11:43:27.800Z,60.41
2022-12-20T11:46:29.956Z,56.70
2022-12-20T11:49:19.792Z,56.38
2022-12-20T11:51:51.171Z,57.76
2022-12-20T11:54:24.181Z,58.23
2022-12-20T11:56:56.394Z,60.19
2022-12-20T11:59:42.832Z,60.98
2022-12-20T12:02:14.409Z,64.64
2022-12-20T12:04:51.528Z,64.14
2022-12-20T12:07:24.221Z,60.88
2022-12-20T12:10:22.070Z,57.78
2022-12-20T12:13:01.050Z,57.35
2022-12-20T12:15:35.820Z,57.97
2022-12-20T12:18:19.625Z,59.81
2022-12-20T12:20:53.780Z,62.97
2022-12-20T12:23:31.478Z,62.30
2022-12-20T12:26:03.873Z,59.13
2022-12-20T12:28:32.913Z,55.38
2022-12-20T12:31:07.010Z,55.34
2022-12-20T12:33:40.679Z,57.46
2022-12-20T12:36:54.801Z,60.11
2022-12-20T12:39:53.401Z,60.86
2022-12-20T12:43:16.008Z,64.00
2022-12-20T12:45:49.321Z,64.77
2022-12-20T12:48:20.892Z,62.46
2022-12-20T12:50:52.044Z,59.96
2022-12-20T12:53:22.746Z,57.50
2022-12-20T12:55:52.154Z,56.35
2022-12-20T12:58:23.454Z,59.59
2022-12-20T13:00:58.408Z,58.92
2022-12-20T13:03:54.544Z,63.32
2022-12-20T13:06:25.508Z,64.64
2022-12-20T13:08:56.642Z,60.30
2022-12-20T13:11:44.240Z,55.79
2022-12-20T13:14:17.471Z,55.69
2022-12-20T13:19:39.611Z,57.39
2022-12-20T13:22:18.299Z,58.51
2022-12-20T13:24:48.474Z,58.88
2022-12-20T13:27:32.839Z,62.08
2022-12-20T13:30:19.313Z,64.91
2022-12-20T13:32:47.271Z,63.65
2022-12-20T13:35:28.281Z,61.85
2022-12-20T13:38:13.373Z,56.32
2022-12-20T13:41:02.209Z,54.88
2022-12-20T13:43:36.719Z,57.04
2022-12-20T13:46:13.731Z,58.41
2022-12-20T13:48:52.763Z,59.68
2022-12-20T13:51:23.632Z,61.43
2022-12-20T13:54:01.700Z,66.02
2022-12-20T13:56:49.502Z,64.01
2022-12-20T13:59:28.760Z,60.48
2022-12-20T14:01:59.577Z,57.79
2022-12-20T14:04:38.897Z,56.08
2022-12-20T14:07:06.922Z,56.79
2022-12-20T14:09:36.992Z,57.68
2022-12-20T14:12:12.018Z,61.60
2022-12-20T14:14:47.355Z,63.94
2022-12-20T14:17:23.070Z,62.54
2022-12-20T14:20:13.721Z,59.33
2022-12-20T14:22:51.171Z,58.37
2022-12-20T14:25:57.434Z,59.43
2022-12-20T14:28:39.377Z,61.72
2022-12-20T14:31:27.123Z,63.70
2022-12-20T14:34:16.557Z,62.77
2022-12-20T14:36:46.766Z,59.75
2022-12-20T14:39:34.352Z,57.46
2022-12-20T14:42:08.406Z,58.82
2022-12-20T14:44:36.481Z,59.01
2022-12-20T14:47:23.482Z,59.70
2022-12-20T14:50:27.368Z,62.54
2022-12-20T14:52:55.353Z,64.87
2022-12-20T14:55:28.717Z,62.37
2022-12-20T14:57:57.855Z,61.22
2022-12-20T15:00:31.658Z,59.91
2022-12-20T15:03:11.523Z,55.20
2022-12-20T15:05:45.532Z,55.32
2022-12-20T15:08:19.657Z,57.30
2022-12-20T15:10:53.252Z,57.88
2022-12-20T15:13:36.564Z,62.06
2022-12-20T15:16:27.191Z,64.46
2022-12-20T15:19:00.478Z,63.47
2022-12-20T15:21:38.547Z,56.99
2022-12-20T15:24:11.634Z,55.06
2022-12-20T15:26:39.733Z,59.37
2022-12-20T15:29:07.751Z,60.23
2022-12-20T15:31:35.969Z,60.31
2022-12-20T15:34:06.973Z,62.46
2022-12-20T15:36:34.868Z,66.12
2022-12-20T15:39:12.633Z,62.80
2022-12-20T15:41:44.620Z,59.98
2022-12-20T15:44:18.337Z,54.66
2022-12-20T15:46:46.560Z,55.31
2022-12-20T15:49:16.817Z,56.21
2022-12-20T15:51:45.415Z,58.88
2022-12-20T15:54:30.011Z,59.75
2022-12-20T15:57:00.284Z,60.91
2022-12-20T16:02:28.245Z,63.76
2022-12-20T16:04:57.816Z,67.14
2022-12-20T16:07:25.937Z,64.98
2022-12-20T16:09:54.325Z,62.74
2022-12-20T16:12:28.179Z,60.38
2022-12-20T16:14:56.484Z,56.96
2022-12-20T16:17:24.673Z,55.07
2022-12-20T16:19:52.687Z,55.92
2022-12-20T16:22:22.599Z,56.79
2022-12-20T16:24:50.676Z,57.00
2022-12-20T16:27:18.679Z,58.58
2022-12-20T16:29:46.640Z,59.53
2022-12-20T16:32:18.655Z,59.96
2022-12-20T16:34:47.100Z,64.97
2022-12-20T16:37:15.143Z,67.12
2022-12-20T16:39:43.255Z,62.70
2022-12-20T16:42:15.651Z,59.75
2022-12-20T16:44:45.562Z,56.65
2022-12-20T16:47:14.978Z,55.88
2022-12-20T16:49:51.601Z,55.70
2022-12-20T16:52:22.264Z,60.51
2022-12-20T16:54:51.244Z,63.56
2022-12-20T16:57:21.418Z,63.39
2022-12-20T16:59:49.968Z,61.92
2022-12-20T17:02:29.125Z,59.90
2022-12-20T17:04:58.161Z,56.40
2022-12-20T17:07:26.138Z,56.42
2022-12-20T17:10:12.734Z,56.17
2022-12-20T17:12:40.708Z,56.60
2022-12-20T17:15:31.783Z,61.70
2022-12-20T17:17:59.789Z,64.97
2022-12-20T17:20:31.096Z,64.12
2022-12-20T17:23:03.079Z,61.72
2022-12-20T17:25:35.192Z,60.19
2022-12-20T17:28:03.215Z,56.92
2022-12-20T17:30:31.217Z,55.51
2022-12-20T17:32:59.248Z,57.21
2022-12-20T17:35:30.642Z,57.02
2022-12-20T17:37:59.075Z,58.92
2022-12-20T17:40:28.069Z,61.15
2022-12-20T17:42:56.201Z,62.70
2022-12-20T17:45:32.616Z,65.48
2022-12-20T17:48:00.984Z,64.43
2022-12-20T17:50:29.050Z,61.18
2022-12-20T17:52:59.891Z,59.98
2022-12-20T17:55:28.727Z,57.32
2022-12-20T17:57:56.863Z,57.23
2022-12-20T18:00:38.420Z,56.80
2022-12-20T18:03:07.340Z,59.26
2022-12-20T18:05:35.654Z,64.04
2022-12-20T18:08:03.753Z,64.94
2022-12-20T18:10:31.839Z,61.63
2022-12-20T18:12:59.779Z,58.88
2022-12-20T18:15:27.693Z,57.73
2022-12-20T18:17:55.853Z,58.69
2022-12-20T18:20:23.915Z,59.84
2022-12-20T18:22:52.189Z,62.39
2022-12-20T18:25:20.233Z,64.26
2022-12-20T18:27:48.231Z,62.58
2022-12-20T18:30:16.143Z,60.50
2022-12-20T18:32:44.127Z,58.62
2022-12-20T18:35:12.094Z,58.45
2022-12-20T18:37:40.206Z,60.09
2022-12-20T18:40:09.175Z,59.38
2022-12-20T18:42:37.186Z,59.19
2022-12-20T18:45:06.147Z,61.15
2022-12-20T18:47:34.198Z,63.50
2022-12-20T18:50:02.196Z,67.81
2022-12-20T18:52:30.193Z,64.62
2022-12-20T18:54:58.608Z,61.58
2022-12-20T18:57:26.622Z,57.80
2022-12-20T18:59:54.648Z,56.48
2022-12-20T19:02:22.710Z,57.97
2022-12-20T19:04:50.931Z,59.43
2022-12-20T19:07:19.006Z,63.25
2022-12-20T19:09:47.064Z,64.46
2022-12-20T19:12:15.043Z,62.48
2022-12-20T19:14:43.106Z,59.69
2022-12-20T19:17:11.256Z,56.35
2022-12-20T19:19:39.345Z,56.90
2022-12-20T19:22:07.430Z,58.53
2022-12-20T19:24:36.002Z,59.60
2022-12-20T19:27:06.267Z,60.41
2022-12-20T19:29:34.399Z,63.84
2022-12-20T19:32:02.755Z,65.50
2022-12-20T19:34:31.690Z,62.65
2022-12-20T19:36:59.938Z,59.67
2022-12-20T19:39:28.949Z,57.59
2022-12-20T19:42:23.044Z,57.73
2022-12-20T19:44:47.801Z,60.26
2022-12-20T19:47:15.734Z,61.90
2022-12-20T19:49:43.738Z,64.02
2022-12-20T19:52:12.170Z,62.83
2022-12-20T19:54:40.214Z,61.21
2022-12-20T19:57:08.166Z,59.29
2022-12-20T19:59:36.222Z,56.70
2022-12-20T20:02:04.424Z,57.38
2022-12-20T20:04:33.106Z,58.89
2022-12-20T20:07:01.254Z,58.09
2022-12-20T20:09:30.316Z,62.29
2022-12-20T20:11:58.309Z,65.32
2022-12-20T20:14:26.501Z,61.91
2022-12-20T20:16:54.551Z,58.91
2022-12-20T20:19:22.485Z,56.78
2022-12-20T20:21:50.602Z,55.93
2022-12-20T20:24:18.976Z,59.30
2022-12-20T20:26:47.041Z,61.73
2022-12-20T20:29:15.113Z,63.87
2022-12-20T20:31:43.161Z,64.71
2022-12-20T20:34:11.260Z,59.74
2022-12-20T20:36:39.448Z,57.04
2022-12-20T20:39:07.524Z,56.43
2022-12-20T20:41:35.466Z,57.65
2022-12-20T20:44:03.657Z,58.94
2022-12-20T20:46:32.138Z,60.06
2022-12-20T20:49:00.130Z,63.80
2022-12-20T20:51:28.211Z,64.68
2022-12-20T20:53:56.463Z,61.55
2022-12-20T20:56:24.334Z,59.77
2022-12-20T20:58:55.272Z,56.47
2022-12-20T21:01:25.842Z,56.98
2022-12-20T21:03:54.058Z,56.81
2022-12-20T21:06:41.984Z,60.12
2022-12-20T21:09:10.261Z,60.73
2022-12-20T21:11:38.520Z,61.60
2022-12-20T21:14:06.897Z,64.29
2022-12-20T21:16:34.900Z,65.08
2022-12-20T21:19:03.065Z,62.48
2022-12-20T21:21:31.114Z,60.26
2022-12-20T21:23:59.179Z,56.08
2022-12-20T21:26:27.338Z,55.45
2022-12-20T21:28:59.415Z,56.49
2022-12-20T21:31:28.391Z,59.26
2022-12-20T21:33:57.321Z,58.47
2022-12-20T21:36:25.691Z,58.82
2022-12-20T21:38:56.650Z,59.56
2022-12-20T21:41:27.289Z,61.36
2022-12-20T21:43:57.259Z,65.25
2022-12-20T21:46:25.908Z,66.81
2022-12-20T21:48:54.453Z,64.30
2022-12-20T21:51:23.947Z,61.05
2022-12-20T21:53:54.378Z,59.84
2022-12-20T21:56:22.837Z,55.12
2022-12-20T21:58:51.141Z,54.84
2022-12-20T22:01:25.869Z,54.38
2022-12-20T22:04:00.154Z,56.37
2022-12-20T22:06:28.542Z,57.04
2022-12-20T22:08:58.674Z,56.77
2022-12-20T22:11:26.901Z,58.26
2022-12-20T22:13:58.439Z,60.85
2022-12-20T22:16:32.001Z,64.93
2022-12-20T22:19:00.671Z,66.18
2022-12-20T22:21:30.829Z,61.56
2022-12-20T22:24:01.109Z,58.83
2022-12-20T22:26:31.213Z,55.21
2022-12-20T22:29:05.296Z,54.89
2022-12-20T22:31:33.672Z,56.63
2022-12-20T22:34:02.037Z,56.73
2022-12-20T22:36:30.173Z,60.64
2022-12-20T22:38:58.611Z,59.80
2022-12-20T22:41:29.633Z,61.22
2022-12-20T22:43:58.777Z,65.28
2022-12-20T22:46:29.493Z,64.46
2022-12-20T22:48:59.292Z,61.51
2022-12-20T22:51:30.938Z,60.61
2022-12-20T22:53:59.904Z,55.07
2022-12-20T22:56:28.270Z,54.77
2022-12-20T22:58:56.346Z,55.18
2022-12-20T23:01:25.134Z,55.06
2022-12-20T23:03:53.391Z,54.77
2022-12-20T23:06:22.057Z,58.91
2022-12-20T23:08:50.081Z,62.13
2022-12-20T23:11:40.036Z,63.69
2022-12-20T23:14:31.865Z,62.90
2022-12-20T23:17:00.344Z,60.00
2022-12-20T23:19:28.786Z,54.00
2022-12-20T23:22:15.316Z,52.85
2022-12-20T23:24:43.902Z,53.89
2022-12-20T23:27:11.898Z,54.19
2022-12-20T23:29:40.956Z,57.53
2022-12-20T23:32:08.935Z,58.80
2022-12-20T23:34:36.863Z,59.59
2022-12-20T23:37:04.939Z,62.93
2022-12-20T23:39:33.013Z,63.70
2022-12-20T23:42:01.212Z,61.73
2022-12-20T23:44:29.160Z,58.30
2022-12-20T23:46:57.065Z,54.56
2022-12-20T23:49:25.089Z,54.08
2022-12-20T23:51:53.128Z,56.32
2022-12-20T23:54:23.912Z,55.26
2022-12-20T23:56:51.865Z,55.50
2022-12-20T23:59:20.237Z,57.43
